createdAt,value
2023-04-08T00:01:41.994Z,1.99
2023-04-08T00:04:14.449Z,2.04
2023-04-08T00:06:46.419Z,1.91
2023-04-08T00:09:18.740Z,1.96
2023-04-08T00:11:52.805Z,1.82
2023-04-08T00:14:25.179Z,1.87
2023-04-08T00:16:56.919Z,2.07
2023-04-08T00:19:28.717Z,2.38
2023-04-08T00:22:00.482Z,2.32
2023-04-08T00:24:32.266Z,2.40
2023-04-08T00:27:04.263Z,2.67
2023-04-08T00:29:36.105Z,2.89
2023-04-08T00:32:07.822Z,2.89
2023-04-08T00:34:39.895Z,2.71
2023-04-08T00:37:11.629Z,2.51
2023-04-08T00:39:43.339Z,2.18
2023-04-08T00:42:15.420Z,2.55
2023-04-08T00:44:47.225Z,2.78
2023-04-08T00:47:19.342Z,2.54
2023-04-08T00:49:52.067Z,2.21
2023-04-08T00:52:24.247Z,2.11
2023-04-08T00:54:56.264Z,2.23
2023-04-08T00:57:28.398Z,2.20
2023-04-08T01:00:00.856Z,2.23
2023-04-08T01:02:45.392Z,2.12
2023-04-08T01:05:39.846Z,2.05
2023-04-08T01:08:12.367Z,2.06
2023-04-08T01:10:47.932Z,2.07
2023-04-08T01:13:25.643Z,1.98
2023-04-08T01:15:57.653Z,1.95
2023-04-08T01:18:32.779Z,1.95
2023-04-08T01:21:07.433Z,1.84
2023-04-08T01:23:58.103Z,1.75
2023-04-08T01:26:31.471Z,1.77
2023-04-08T01:29:05.857Z,1.86
2023-04-08T01:31:41.375Z,1.75
2023-04-08T01:34:15.398Z,1.68
2023-04-08T01:36:48.832Z,1.91
2023-04-08T01:39:22.216Z,1.73
2023-04-08T01:41:56.489Z,1.83
2023-04-08T01:44:31.590Z,2.02
2023-04-08T01:47:04.002Z,1.82
2023-04-08T01:49:38.101Z,2.28
2023-04-08T01:52:13.369Z,2.27
2023-04-08T01:54:45.205Z,2.04
2023-04-08T01:57:26.552Z,2.21
2023-04-08T02:00:02.735Z,1.92
2023-04-08T02:02:38.159Z,1.99
2023-04-08T02:05:10.479Z,1.95
2023-04-08T02:07:42.909Z,2.05
2023-04-08T02:10:15.624Z,1.91
2023-04-08T02:12:48.172Z,1.86
2023-04-08T02:15:21.138Z,2.03
2023-04-08T02:18:04.033Z,1.96
2023-04-08T02:20:44.459Z,1.79
2023-04-08T02:23:21.603Z,1.90
2023-04-08T02:25:56.529Z,2.04
2023-04-08T02:28:35.630Z,1.92
2023-04-08T02:31:12.611Z,2.10
2023-04-08T02:33:52.480Z,2.21
2023-04-08T02:36:26.366Z,2.25
2023-04-08T02:38:58.739Z,2.30
2023-04-08T02:41:31.427Z,2.33
2023-04-08T02:44:03.541Z,2.36
2023-04-08T02:46:35.614Z,2.21
2023-04-08T02:49:08.478Z,2.18
2023-04-08T02:51:40.215Z,2.11
2023-04-08T02:54:11.900Z,2.16
2023-04-08T02:56:43.761Z,2.23
2023-04-08T02:59:15.485Z,2.12
2023-04-08T03:01:47.333Z,2.42
2023-04-08T03:04:19.197Z,2.21
2023-04-08T03:06:50.815Z,2.32
2023-04-08T03:09:22.718Z,2.38
2023-04-08T03:11:54.605Z,2.21
2023-04-08T03:14:26.538Z,2.33
2023-04-08T03:16:58.297Z,2.32
2023-04-08T03:19:30.454Z,2.12
2023-04-08T03:22:02.245Z,2.32
2023-04-08T03:24:34.035Z,2.23
2023-04-08T03:27:06.257Z,2.36
2023-04-08T03:29:38.611Z,2.29
2023-04-08T03:32:10.566Z,2.21
2023-04-08T03:34:42.355Z,2.19
2023-04-08T03:37:14.122Z,2.25
2023-04-08T03:39:45.815Z,2.36
2023-04-08T03:42:17.670Z,2.23
2023-04-08T03:44:49.581Z,2.15
2023-04-08T03:47:21.409Z,2.27
2023-04-08T03:49:53.862Z,2.31
2023-04-08T03:52:25.942Z,2.37
2023-04-08T03:54:57.738Z,2.37
2023-04-08T03:57:29.549Z,2.47
2023-04-08T04:00:01.242Z,2.77
2023-04-08T04:02:33.248Z,2.71
2023-04-08T04:05:05.336Z,2.80
2023-04-08T04:07:37.167Z,2.51
2023-04-08T04:10:09.484Z,2.85
2023-04-08T04:12:43.530Z,2.75
2023-04-08T04:15:15.579Z,2.86
2023-04-08T04:17:51.040Z,2.83
2023-04-08T04:20:23.152Z,2.71
2023-04-08T04:22:54.903Z,2.71
2023-04-08T04:25:26.770Z,2.52
2023-04-08T04:27:59.529Z,2.83
2023-04-08T04:30:32.643Z,3.01
2023-04-08T04:33:05.724Z,3.13
2023-04-08T04:35:39.757Z,3.22
2023-04-08T04:38:13.087Z,3.09
2023-04-08T04:40:45.201Z,3.10
2023-04-08T04:43:17.721Z,3.47
2023-04-08T04:45:52.563Z,3.93
2023-04-08T04:48:24.476Z,3.86
2023-04-08T04:50:57.979Z,3.90
2023-04-08T04:53:31.699Z,4.04
2023-04-08T04:56:03.741Z,4.13
2023-04-08T04:58:36.077Z,3.95
2023-04-08T05:01:07.828Z,3.80
2023-04-08T05:03:39.885Z,3.97
2023-04-08T05:06:12.130Z,3.63
2023-04-08T05:08:43.886Z,4.09
2023-04-08T05:11:16.184Z,3.78
2023-04-08T05:13:48.169Z,3.55
2023-04-08T05:16:20.163Z,3.54
2023-04-08T05:18:52.519Z,3.47
2023-04-08T05:21:24.740Z,3.47
2023-04-08T05:23:56.642Z,3.50
2023-04-08T05:26:29.716Z,3.29
2023-04-08T05:29:01.462Z,3.64
2023-04-08T05:31:33.305Z,3.39
2023-04-08T05:34:05.069Z,3.35
2023-04-08T05:36:37.136Z,3.60
2023-04-08T05:39:08.844Z,3.43
2023-04-08T05:41:40.655Z,3.54
2023-04-08T05:44:13.313Z,3.68
2023-04-08T05:46:44.996Z,3.65
2023-04-08T05:49:16.783Z,3.46
2023-04-08T05:51:48.624Z,3.65
2023-04-08T05:54:20.489Z,3.45
2023-04-08T05:56:52.228Z,3.47
2023-04-08T05:59:24.092Z,3.55
2023-04-08T06:01:56.003Z,3.42
2023-04-08T06:04:27.959Z,3.75
2023-04-08T06:06:59.882Z,3.53
2023-04-08T06:09:35.434Z,4.34
2023-04-08T06:12:07.574Z,4.69
2023-04-08T06:14:39.622Z,3.66
2023-04-08T06:17:11.490Z,3.61
2023-04-08T06:19:43.719Z,3.43
2023-04-08T06:22:15.813Z,3.76
2023-04-08T06:27:49.649Z,3.63
2023-04-08T06:30:21.509Z,3.47
2023-04-08T06:32:53.509Z,3.52
2023-04-08T06:35:25.724Z,3.57
2023-04-08T06:37:58.128Z,3.73
2023-04-08T06:40:30.187Z,3.69
2023-04-08T06:43:02.452Z,3.74
2023-04-08T06:45:40.114Z,3.70
2023-04-08T06:48:12.077Z,3.84
2023-04-08T06:50:43.949Z,3.66
2023-04-08T06:53:15.821Z,3.56
2023-04-08T06:55:47.560Z,3.56
2023-04-08T06:58:19.864Z,3.81
2023-04-08T07:00:53.448Z,3.78
2023-04-08T07:03:25.748Z,3.97
2023-04-08T07:05:57.475Z,3.92
2023-04-08T07:08:32.932Z,4.11
2023-04-08T07:11:05.294Z,3.97
2023-04-08T07:13:38.072Z,4.17
2023-04-08T07:16:10.251Z,4.35
2023-04-08T07:18:42.194Z,4.02
2023-04-08T07:21:14.880Z,3.89
2023-04-08T07:23:46.584Z,3.91
2023-04-08T07:26:18.372Z,3.55
2023-04-08T07:28:50.352Z,3.31
2023-04-08T07:31:22.851Z,3.07
2023-04-08T07:33:54.727Z,3.19
2023-04-08T07:36:26.500Z,3.33
2023-04-08T07:38:58.469Z,3.53
2023-04-08T07:41:31.740Z,3.16
2023-04-08T07:44:03.725Z,3.22
2023-04-08T07:46:38.854Z,3.24
2023-04-08T07:49:10.882Z,2.95
2023-04-08T07:51:42.773Z,3.25
2023-04-08T07:54:15.724Z,2.70
2023-04-08T07:56:47.582Z,3.20
2023-04-08T07:59:20.127Z,3.02
2023-04-08T08:01:52.885Z,3.04
2023-04-08T08:04:25.110Z,3.16
2023-04-08T08:06:57.400Z,3.13
2023-04-08T08:09:32.049Z,3.28
2023-04-08T08:12:04.152Z,3.09
2023-04-08T08:14:35.813Z,3.10
2023-04-08T08:17:07.527Z,3.13
2023-04-08T08:19:39.321Z,3.06
2023-04-08T08:22:12.077Z,3.29
2023-04-08T08:24:43.750Z,3.26
2023-04-08T08:27:15.559Z,3.13
2023-04-08T08:29:47.209Z,3.32
2023-04-08T08:32:19.126Z,3.33
2023-04-08T08:34:50.783Z,3.46
2023-04-08T08:37:22.640Z,3.72
2023-04-08T08:39:54.482Z,3.39
2023-04-08T08:42:26.680Z,3.44
2023-04-08T08:45:01.874Z,3.66
2023-04-08T08:47:33.936Z,3.73
2023-04-08T08:50:06.187Z,3.83
2023-04-08T08:52:38.027Z,3.73
2023-04-08T08:55:26.949Z,3.45
2023-04-08T08:58:03.322Z,3.39
2023-04-08T09:00:36.228Z,3.17
2023-04-08T09:03:22.004Z,3.22
2023-04-08T09:05:57.868Z,2.95
2023-04-08T09:08:36.270Z,3.11
2023-04-08T09:11:20.570Z,3.24
2023-04-08T09:13:52.508Z,2.96
2023-04-08T09:20:12.531Z,3.18
2023-04-08T09:22:56.351Z,2.97
2023-04-08T09:25:30.711Z,2.73
2023-04-08T09:28:02.868Z,3.22
2023-04-08T09:30:34.842Z,3.18
2023-04-08T09:33:06.902Z,3.07
2023-04-08T09:35:38.745Z,3.28
2023-04-08T09:38:11.308Z,2.71
2023-04-08T09:41:08.378Z,2.66
2023-04-08T09:43:49.118Z,2.62
2023-04-08T09:50:31.264Z,2.80
2023-04-08T09:53:27.990Z,3.02
2023-04-08T09:56:02.175Z,3.27
2023-04-08T09:58:41.676Z,3.16
2023-04-08T10:01:26.906Z,3.20
2023-04-08T10:04:03.373Z,3.14
2023-04-08T10:06:38.336Z,2.78
2023-04-08T10:09:12.943Z,2.68
2023-04-08T10:11:44.731Z,2.55
2023-04-08T10:14:16.942Z,2.89
2023-04-08T10:16:48.969Z,2.99
2023-04-08T10:19:38.728Z,2.82
2023-04-08T10:22:31.496Z,2.27
2023-04-08T10:25:15.982Z,2.66
2023-04-08T10:27:47.934Z,2.74
2023-04-08T10:30:28.585Z,2.76
2023-04-08T10:33:01.297Z,2.73
2023-04-08T10:35:36.244Z,2.72
2023-04-08T10:38:09.369Z,2.78
2023-04-08T10:40:45.432Z,3.01
2023-04-08T10:43:21.572Z,3.01
2023-04-08T10:45:53.811Z,2.87
2023-04-08T10:48:27.320Z,2.83
2023-04-08T10:51:01.743Z,2.81
2023-04-08T10:53:34.872Z,3.12
2023-04-08T10:56:11.764Z,2.83
2023-04-08T10:58:51.913Z,2.63
2023-04-08T11:01:23.900Z,2.89
2023-04-08T11:03:56.053Z,3.01
2023-04-08T11:06:29.458Z,2.96
2023-04-08T11:09:03.259Z,3.07
2023-04-08T11:11:35.224Z,2.96
2023-04-08T11:14:07.079Z,2.89
2023-04-08T11:16:40.172Z,2.81
2023-04-08T11:19:13.883Z,3.11
2023-04-08T11:21:45.839Z,2.80
2023-04-08T11:24:18.049Z,2.80
2023-04-08T11:26:50.102Z,2.97
2023-04-08T11:29:22.067Z,2.84
2023-04-08T11:31:54.690Z,3.18
2023-04-08T11:34:26.518Z,3.15
2023-04-08T11:36:58.224Z,2.71
2023-04-08T11:39:30.556Z,2.63
2023-04-08T11:42:02.499Z,2.71
2023-04-08T11:44:34.595Z,2.84
2023-04-08T11:47:06.322Z,2.75
2023-04-08T11:49:46.238Z,3.12
2023-04-08T11:52:18.315Z,2.74
2023-04-08T11:54:50.109Z,2.90
2023-04-08T11:57:29.314Z,2.53
2023-04-08T12:00:00.920Z,2.32
2023-04-08T12:02:33.252Z,2.41
2023-04-08T12:05:05.383Z,2.09
2023-04-08T12:07:37.305Z,2.54
2023-04-08T12:10:10.517Z,2.38
2023-04-08T12:12:42.821Z,2.36
2023-04-08T12:15:14.613Z,2.34
2023-04-08T12:17:46.589Z,2.19
2023-04-08T12:20:18.503Z,2.31
2023-04-08T12:22:50.456Z,2.30
2023-04-08T12:25:22.236Z,2.15
2023-04-08T12:27:54.066Z,2.28
2023-04-08T12:30:25.975Z,2.22
2023-04-08T12:32:58.235Z,2.10
2023-04-08T12:35:30.207Z,2.36
2023-04-08T12:38:02.333Z,1.89
2023-04-08T12:40:34.605Z,1.73
2023-04-08T12:43:06.558Z,1.83
2023-04-08T12:45:39.328Z,1.86
2023-04-08T12:48:12.451Z,1.51
2023-04-08T12:50:44.158Z,1.41
2023-04-08T12:53:16.025Z,1.33
2023-04-08T12:55:49.220Z,1.44
2023-04-08T12:58:22.544Z,1.63
2023-04-08T13:00:54.938Z,1.72
2023-04-08T13:03:27.121Z,1.63
2023-04-08T13:05:59.009Z,1.74
2023-04-08T13:08:31.247Z,2.17
2023-04-08T13:11:03.291Z,2.29
2023-04-08T13:13:35.566Z,2.29
2023-04-08T13:16:07.509Z,2.21
2023-04-08T13:18:40.200Z,2.19
2023-04-08T13:21:12.931Z,2.26
2023-04-08T13:23:44.619Z,2.11
2023-04-08T13:26:16.520Z,2.13
2023-04-08T13:28:56.574Z,2.10
2023-04-08T13:31:29.545Z,1.96
2023-04-08T13:34:01.420Z,1.82
2023-04-08T13:36:33.151Z,2.19
2023-04-08T13:39:04.777Z,2.31
2023-04-08T13:41:36.507Z,2.13
2023-04-08T13:44:08.453Z,2.28
2023-04-08T13:46:40.176Z,2.42
2023-04-08T13:49:12.010Z,1.83
2023-04-08T13:51:43.795Z,1.71
2023-04-08T13:54:15.524Z,1.70
2023-04-08T13:56:47.192Z,1.53
2023-04-08T13:59:19.325Z,1.66
2023-04-08T14:01:51.246Z,1.78
2023-04-08T14:04:23.669Z,1.58
2023-04-08T14:06:55.475Z,1.53
2023-04-08T14:09:27.477Z,1.42
2023-04-08T14:11:59.247Z,1.74
2023-04-08T14:14:31.333Z,1.73
2023-04-08T14:17:03.074Z,1.79
2023-04-08T14:19:34.959Z,1.52
2023-04-08T14:22:06.704Z,1.46
2023-04-08T14:24:38.777Z,1.57
2023-04-08T14:27:10.720Z,1.48
2023-04-08T14:29:42.402Z,1.41
2023-04-08T14:32:14.289Z,1.46
2023-04-08T14:34:45.954Z,1.30
2023-04-08T14:37:17.668Z,1.19
2023-04-08T14:40:16.773Z,1.31
2023-04-08T14:42:50.104Z,1.19
2023-04-08T14:45:31.592Z,1.53
2023-04-08T14:48:04.804Z,1.36
2023-04-08T14:50:36.791Z,1.61
2023-04-08T14:53:09.193Z,1.43
2023-04-08T14:55:50.865Z,1.44
2023-04-08T14:58:22.857Z,1.69
2023-04-08T15:00:54.765Z,1.63
2023-04-08T15:03:26.734Z,1.48
2023-04-08T15:06:05.010Z,1.44
2023-04-08T15:08:37.366Z,1.32
2023-04-08T15:11:09.974Z,1.26
2023-04-08T15:13:42.198Z,1.46
2023-04-08T15:16:14.417Z,1.54
2023-04-08T15:18:46.961Z,1.46
2023-04-08T15:21:19.674Z,1.44
2023-04-08T15:23:51.385Z,1.53
2023-04-08T15:26:24.715Z,1.62
2023-04-08T15:28:56.463Z,1.38
2023-04-08T15:31:28.557Z,1.65
2023-04-08T15:34:00.997Z,1.39
2023-04-08T15:36:32.936Z,1.49
2023-04-08T15:39:04.714Z,1.32
2023-04-08T15:41:36.720Z,1.37
2023-04-08T15:44:08.616Z,1.28
2023-04-08T15:46:41.436Z,1.28
2023-04-08T15:49:13.270Z,1.08
2023-04-08T15:51:45.212Z,1.31
2023-04-08T15:54:17.500Z,1.03
2023-04-08T15:56:49.159Z,1.26
2023-04-08T15:59:21.233Z,1.17
2023-04-08T16:01:53.569Z,1.37
2023-04-08T16:04:25.624Z,1.35
2023-04-08T16:06:57.395Z,1.34
2023-04-08T16:09:29.497Z,1.37
2023-04-08T16:12:02.638Z,1.40
2023-04-08T16:14:34.509Z,1.31
2023-04-08T16:17:06.236Z,1.45
2023-04-08T16:19:37.941Z,1.54
2023-04-08T16:22:09.520Z,1.35
2023-04-08T16:24:41.230Z,1.40
2023-04-08T16:27:12.840Z,1.42
2023-04-08T16:29:44.566Z,1.47
2023-04-08T16:32:16.533Z,1.56
2023-04-08T16:34:48.257Z,1.42
2023-04-08T16:37:20.057Z,1.45
2023-04-08T16:39:51.786Z,1.53
2023-04-08T16:42:23.840Z,1.63
2023-04-08T16:44:56.780Z,1.51
2023-04-08T16:47:28.407Z,1.60
2023-04-08T16:50:00.142Z,1.84
2023-04-08T16:52:32.192Z,1.74
2023-04-08T16:55:04.114Z,1.70
2023-04-08T16:57:35.774Z,1.67
2023-04-08T17:00:08.520Z,1.67
2023-04-08T17:02:40.588Z,1.60
2023-04-08T17:05:12.561Z,1.70
2023-04-08T17:07:44.418Z,1.49
2023-04-08T17:10:16.500Z,1.53
2023-04-08T17:12:48.356Z,1.68
2023-04-08T17:15:20.110Z,1.74
2023-04-08T17:17:51.999Z,1.71
2023-04-08T17:20:23.734Z,1.62
2023-04-08T17:22:55.681Z,1.68
2023-04-08T17:25:27.471Z,1.82
2023-04-08T17:27:59.489Z,1.62
2023-04-08T17:30:31.158Z,1.71
2023-04-08T17:33:03.225Z,2.03
2023-04-08T17:35:35.004Z,1.83
2023-04-08T17:38:07.055Z,1.90
2023-04-08T17:40:39.116Z,1.83
2023-04-08T17:43:10.978Z,1.55
2023-04-08T17:45:42.664Z,1.81
2023-04-08T17:48:14.520Z,1.85
2023-04-08T17:50:46.675Z,1.94
2023-04-08T17:53:19.031Z,1.91
2023-04-08T17:55:50.872Z,1.82
2023-04-08T17:58:23.182Z,1.93
2023-04-08T18:00:55.158Z,1.92
2023-04-08T18:03:27.328Z,1.94
2023-04-08T18:05:59.214Z,2.25
2023-04-08T18:08:31.248Z,2.41
2023-04-08T18:11:06.524Z,2.32
2023-04-08T18:13:38.959Z,2.45
2023-04-08T18:16:20.586Z,2.56
2023-04-08T18:18:52.498Z,2.58
2023-04-08T18:21:24.481Z,2.70
2023-04-08T18:23:56.616Z,2.87
2023-04-08T18:26:28.666Z,3.00
2023-04-08T18:29:00.513Z,2.95
2023-04-08T18:31:32.654Z,3.05
2023-04-08T18:34:04.505Z,3.15
2023-04-08T18:36:36.344Z,2.99
2023-04-08T18:39:08.421Z,3.15
2023-04-08T18:41:42.205Z,3.12
2023-04-08T18:44:14.189Z,3.04
2023-04-08T18:46:45.922Z,3.54
2023-04-08T18:49:19.033Z,3.13
2023-04-08T18:52:02.033Z,3.09
2023-04-08T18:54:35.343Z,3.34
2023-04-08T18:57:07.220Z,3.46
2023-04-08T18:59:38.829Z,3.46
2023-04-08T19:02:10.658Z,3.48
2023-04-08T19:04:42.419Z,3.29
2023-04-08T19:07:14.025Z,3.34
2023-04-08T19:09:45.731Z,3.59
2023-04-08T19:12:17.440Z,3.88
2023-04-08T19:14:49.185Z,3.75
2023-04-08T19:17:21.010Z,3.56
2023-04-08T19:19:52.695Z,3.53
2023-04-08T19:22:24.778Z,3.56
2023-04-08T19:24:56.414Z,3.47
2023-04-08T19:27:28.225Z,3.61
2023-04-08T19:30:00.007Z,3.63
2023-04-08T19:32:33.757Z,3.92
2023-04-08T19:35:06.213Z,3.69
2023-04-08T19:37:38.106Z,3.80
2023-04-08T19:40:10.831Z,3.69
2023-04-08T19:42:44.333Z,4.09
2023-04-08T19:45:16.070Z,3.72
2023-04-08T19:47:47.944Z,3.51
2023-04-08T19:50:20.143Z,3.67
2023-04-08T19:52:52.002Z,3.46
2023-04-08T19:55:23.676Z,3.71
2023-04-08T19:57:55.826Z,4.03
2023-04-08T20:00:28.260Z,3.87
2023-04-08T20:03:00.567Z,3.95
2023-04-08T20:05:32.601Z,4.00
2023-04-08T20:08:04.698Z,4.16
2023-04-08T20:10:36.508Z,4.20
2023-04-08T20:13:08.332Z,4.14
2023-04-08T20:15:40.523Z,3.99
2023-04-08T20:18:13.099Z,4.01
2023-04-08T20:20:44.805Z,4.25
2023-04-08T20:23:16.927Z,4.38
2023-04-08T20:25:48.741Z,4.63
2023-04-08T20:28:22.252Z,4.42
2023-04-08T20:30:53.890Z,4.90
2023-04-08T20:33:26.319Z,4.68
2023-04-08T20:35:58.261Z,4.83
2023-04-08T20:38:30.222Z,5.00
2023-04-08T20:41:02.274Z,4.75
2023-04-08T20:43:34.424Z,4.88
2023-04-08T20:46:06.144Z,5.10
2023-04-08T20:48:37.998Z,5.00
2023-04-08T20:51:09.982Z,5.35
2023-04-08T20:53:43.928Z,5.50
2023-04-08T20:56:16.369Z,5.72
2023-04-08T20:58:48.061Z,5.36
2023-04-08T21:01:19.909Z,5.77
2023-04-08T21:03:52.049Z,5.73
2023-04-08T21:06:23.850Z,6.03
2023-04-08T21:08:55.588Z,6.05
2023-04-08T21:11:27.507Z,6.14
2023-04-08T21:13:59.233Z,6.22
2023-04-08T21:16:30.961Z,6.26
2023-04-08T21:19:02.872Z,6.29
2023-04-08T21:21:34.870Z,6.03
2023-04-08T21:24:06.992Z,5.66
2023-04-08T21:26:38.920Z,5.96
2023-04-08T21:29:10.615Z,6.22
2023-04-08T21:31:43.012Z,5.96
2023-04-08T21:34:15.091Z,6.51
2023-04-08T21:36:46.836Z,6.30
2023-04-08T21:39:18.607Z,6.38
2023-04-08T21:41:50.249Z,6.20
2023-04-08T21:44:21.988Z,6.52
2023-04-08T21:46:53.732Z,6.83
2023-04-08T21:49:25.503Z,6.69
2023-04-08T21:51:57.385Z,6.57
2023-04-08T21:54:28.996Z,6.91
2023-04-08T21:57:00.806Z,6.94
2023-04-08T21:59:32.598Z,6.86
2023-04-08T22:02:04.813Z,6.32
2023-04-08T22:04:36.611Z,6.70
2023-04-08T22:07:08.411Z,7.00
2023-04-08T22:09:40.438Z,7.06
2023-04-08T22:12:12.576Z,7.15
2023-04-08T22:14:44.269Z,7.09
2023-04-08T22:17:15.943Z,6.90
2023-04-08T22:19:47.618Z,6.82
2023-04-08T22:22:19.388Z,6.70
2023-04-08T22:24:50.997Z,6.99
2023-04-08T22:27:22.692Z,7.01
2023-04-08T22:29:54.394Z,7.24
2023-04-08T22:32:26.228Z,7.32
2023-04-08T22:34:58.188Z,7.38
2023-04-08T22:37:31.874Z,7.37
2023-04-08T22:40:04.099Z,7.37
2023-04-08T22:42:35.916Z,7.40
2023-04-08T22:45:07.726Z,7.59
2023-04-08T22:47:39.623Z,7.20
2023-04-08T22:50:11.560Z,7.58
2023-04-08T22:52:43.241Z,7.24
2023-04-08T22:55:14.927Z,7.49
2023-04-08T22:57:46.870Z,7.40
2023-04-08T23:00:18.825Z,7.55
2023-04-08T23:02:50.840Z,7.48
2023-04-08T23:05:23.770Z,7.52
2023-04-08T23:07:56.446Z,7.40
2023-04-08T23:10:28.567Z,7.77
2023-04-08T23:13:01.079Z,7.43
2023-04-08T23:15:32.957Z,7.22
2023-04-08T23:18:05.478Z,7.49
2023-04-08T23:20:37.441Z,7.56
2023-04-08T23:23:09.806Z,7.51
2023-04-08T23:25:42.298Z,7.20
2023-04-08T23:28:15.004Z,7.22
2023-04-08T23:30:46.924Z,7.71
2023-04-08T23:33:19.637Z,7.40
2023-04-08T23:35:51.663Z,7.32
2023-04-08T23:38:24.000Z,7.81
2023-04-08T23:40:55.841Z,7.40
2023-04-08T23:43:28.143Z,7.55
2023-04-08T23:45:59.922Z,7.15
2023-04-08T23:48:32.261Z,7.70
2023-04-08T23:51:04.386Z,8.12
2023-04-08T23:53:36.156Z,7.93
2023-04-08T23:56:09.197Z,7.88
2023-04-08T23:58:41.377Z,8.14
